Time;durP1;ratioP1;P1;durP2;ratioP2;P2;SDS_P1;SDS_P2;PMS_P1;PMS_P2;Temp;Humidity;BMP_temperature;BMP_pressure;BME280_temperature;BME280_humidity;BME280_pressure;Samples;Min_cycle;Max_cycle;Signal;HPM_P1;HPM_P2
2022/12/30 00:01:17;;;;;;;20.27;12.93;;;3.20;99.90;;;;;;5038023;28;20194;-70
2022/12/30 00:03:45;;;;;;;20.30;12.57;;;3.20;99.90;;;;;;5051053;28;20246;-69
2022/12/30 00:06:15;;;;;;;20.03;13.00;;;3.20;99.90;;;;;;5050679;28;20228;-69
2022/12/30 00:08:48;;;;;;;22.07;13.27;;;3.20;99.90;;;;;;5051362;28;20189;-68
2022/12/30 00:11:17;;;;;;;21.57;13.20;;;3.20;99.90;;;;;;5051124;28;20221;-68
2022/12/30 00:33:26;;;;;;;23.80;14.83;;;3.20;99.90;;;;;;5043671;28;20204;-69
2022/12/30 00:35:53;;;;;;;21.07;13.90;;;3.20;99.90;;;;;;5049472;28;20205;-69
2022/12/30 00:38:19;;;;;;;21.63;13.90;;;3.20;99.90;;;;;;5050265;28;20232;-69
2022/12/30 00:43:27;;;;;;;21.37;13.83;;;3.20;99.90;;;;;;5049845;28;20268;-69
2022/12/30 00:45:54;;;;;;;23.37;14.83;;;3.20;99.90;;;;;;5050800;28;20213;-68
2022/12/30 00:56:34;;;;;;;23.33;14.50;;;3.30;99.90;;;;;;5054524;28;20220;-70
2022/12/30 00:59:01;;;;;;;22.33;14.70;;;3.30;99.90;;;;;;5054478;28;20559;-69
2022/12/30 01:01:28;;;;;;;21.20;14.07;;;3.30;99.90;;;;;;5054265;28;20208;-69
2022/12/30 01:03:56;;;;;;;24.57;14.47;;;3.30;99.90;;;;;;5051998;28;20217;-70
2022/12/30 01:06:23;;;;;;;24.27;14.77;;;3.20;99.90;;;;;;5054328;28;20214;-69
2022/12/30 01:08:49;;;;;;;25.00;15.07;;;3.20;99.90;;;;;;5054391;28;20208;-69
2022/12/30 01:11:16;;;;;;;23.60;14.73;;;3.20;99.90;;;;;;5053893;28;20324;-70
2022/12/30 01:13:43;;;;;;;24.43;14.40;;;3.20;99.90;;;;;;5054337;28;20201;-69
2022/12/30 01:16:12;;;;;;;25.20;14.97;;;3.20;99.90;;;;;;5053611;28;20201;-70
2022/12/30 01:18:39;;;;;;;23.00;14.80;;;3.10;99.90;;;;;;5054194;28;20201;-70
2022/12/30 01:21:08;;;;;;;24.73;14.77;;;3.10;99.90;;;;;;5053994;28;20723;-69
2022/12/30 01:23:35;;;;;;;25.87;15.10;;;3.10;99.90;;;;;;5053971;28;20209;-70
2022/12/30 01:26:03;;;;;;;24.60;14.93;;;3.10;99.90;;;;;;5054014;28;20661;-69
2022/12/30 01:28:31;;;;;;;22.83;14.93;;;3.10;99.90;;;;;;5053869;28;20206;-70
2022/12/30 01:30:58;;;;;;;23.63;14.90;;;3.20;99.90;;;;;;5053046;28;20241;-70
2022/12/30 01:33:25;;;;;;;26.50;16.70;;;3.20;99.90;;;;;;5051711;28;20561;-69
2022/12/30 01:35:52;;;;;;;25.60;15.93;;;3.10;99.90;;;;;;5053563;28;20614;-69
2022/12/30 01:38:20;;;;;;;22.33;14.57;;;3.10;99.90;;;;;;5053824;28;20851;-69
2022/12/30 01:40:47;;;;;;;25.30;15.20;;;3.10;99.90;;;;;;5053878;28;20209;-69
2022/12/30 01:43:16;;;;;;;23.80;15.90;;;3.10;99.90;;;;;;5053866;28;20683;-69
2022/12/30 01:45:46;;;;;;;23.00;14.13;;;3.10;99.90;;;;;;5053251;28;20245;-68
2022/12/30 01:48:20;;;;;;;25.30;15.70;;;3.10;99.90;;;;;;5054124;28;20645;-69
2022/12/30 01:50:51;;;;;;;24.97;15.70;;;3.10;99.90;;;;;;5053419;28;20220;-69
2022/12/30 01:53:21;;;;;;;24.60;15.57;;;3.10;99.90;;;;;;5053331;28;20281;-70
2022/12/30 01:55:54;;;;;;;24.60;14.93;;;3.10;99.90;;;;;;5053434;28;20197;-68
2022/12/30 01:58:26;;;;;;;23.87;15.40;;;3.10;99.90;;;;;;5051891;28;20208;-69
2022/12/30 02:00:53;;;;;;;24.07;14.67;;;3.10;99.90;;;;;;5052568;28;20186;-69
2022/12/30 02:03:20;;;;;;;24.37;15.00;;;3.00;99.90;;;;;;5053410;28;20206;-69
2022/12/30 02:05:48;;;;;;;22.53;14.50;;;3.00;99.90;;;;;;5053254;28;20209;-70
2022/12/30 02:08:18;;;;;;;23.90;15.03;;;3.00;99.90;;;;;;5054043;28;20205;-70
2022/12/30 02:10:48;;;;;;;21.83;15.07;;;3.00;99.90;;;;;;5053507;28;20225;-69
2022/12/30 02:13:18;;;;;;;22.50;14.67;;;3.10;99.90;;;;;;5053490;28;20562;-69
2022/12/30 02:16:01;;;;;;;24.33;14.70;;;3.10;99.90;;;;;;5053420;28;20224;-69
2022/12/30 02:18:39;;;;;;;24.80;15.13;;;3.10;99.90;;;;;;5053810;28;20197;-70
2022/12/30 02:21:32;;;;;;;21.93;14.93;;;3.10;99.90;;;;;;5053686;28;20193;-69
2022/12/30 02:24:49;;;;;;;22.93;15.10;;;3.10;99.90;;;;;;5052430;28;20224;-70
2022/12/30 02:27:54;;;;;;;22.43;14.80;;;3.10;99.90;;;;;;5033818;28;20539;-70
2022/12/30 02:30:23;;;;;;;21.70;14.50;;;3.00;99.90;;;;;;5033284;28;20240;-70
2022/12/30 02:33:09;;;;;;;24.57;15.00;;;3.00;99.90;;;;;;5040736;28;20724;-69
2022/12/30 02:35:44;;;;;;;23.37;15.27;;;3.10;99.90;;;;;;5053282;28;20196;-69
2022/12/30 02:38:20;;;;;;;23.13;14.63;;;3.00;99.90;;;;;;5053508;28;20225;-69
2022/12/30 02:46:31;;;;;;;24.77;15.50;;;3.10;99.90;;;;;;5053339;28;20558;-68
2022/12/30 02:49:02;;;;;;;23.90;15.37;;;3.10;99.90;;;;;;5053209;28;20638;-71
2022/12/30 02:54:14;;;;;;;25.67;14.60;;;3.10;99.90;;;;;;5052951;28;20184;-68
2022/12/30 02:56:48;;;;;;;22.77;14.30;;;3.10;99.90;;;;;;5051411;28;20209;-69
2022/12/30 03:05:03;;;;;;;24.93;14.73;;;3.20;99.90;;;;;;5052765;28;20312;-69
2022/12/30 03:07:37;;;;;;;23.10;14.60;;;3.30;99.90;;;;;;5052998;28;20546;-70
2022/12/30 03:13:04;;;;;;;22.67;14.60;;;3.30;99.90;;;;;;5050059;28;20350;-69
2022/12/30 03:15:38;;;;;;;23.63;14.23;;;3.30;99.90;;;;;;5052814;28;20201;-69
2022/12/30 03:18:05;;;;;;;23.50;14.23;;;3.30;99.90;;;;;;5052574;28;20197;-69
2022/12/30 03:20:34;;;;;;;20.03;13.73;;;3.40;99.90;;;;;;5052723;28;20361;-69
2022/12/30 03:28:36;;;;;;;21.57;13.63;;;3.40;99.90;;;;;;5049825;28;20247;-68
2022/12/30 03:31:06;;;;;;;23.53;15.03;;;3.40;99.90;;;;;;5052121;28;20237;-68
2022/12/30 03:33:33;;;;;;;21.40;13.77;;;3.40;99.90;;;;;;5051867;28;20201;-68
2022/12/30 03:36:10;;;;;;;24.80;15.50;;;3.40;99.90;;;;;;5052332;28;20300;-69
2022/12/30 03:38:40;;;;;;;24.43;14.27;;;3.40;99.90;;;;;;5051846;28;20229;-69
2022/12/30 03:41:10;;;;;;;21.13;13.60;;;3.50;99.90;;;;;;5052197;28;20205;-69
2022/12/30 03:43:37;;;;;;;22.63;14.33;;;3.50;99.90;;;;;;5045265;28;20323;-70
2022/12/30 03:46:04;;;;;;;20.70;13.80;;;3.50;99.90;;;;;;5051189;28;20208;-69
2022/12/30 03:48:31;;;;;;;23.17;14.30;;;3.50;99.90;;;;;;5051841;28;20213;-70
2022/12/30 03:50:57;;;;;;;24.30;14.37;;;3.60;99.90;;;;;;5052229;28;20232;-68
2022/12/30 03:53:25;;;;;;;23.53;13.93;;;3.60;99.90;;;;;;5052119;28;20201;-70
2022/12/30 03:55:53;;;;;;;22.63;13.63;;;3.60;99.90;;;;;;5051883;28;20208;-69
2022/12/30 03:58:19;;;;;;;21.27;14.00;;;3.60;99.90;;;;;;5051757;28;20295;-69
2022/12/30 04:00:46;;;;;;;20.50;13.03;;;3.60;99.90;;;;;;5051289;28;20642;-70
2022/12/30 04:03:13;;;;;;;24.00;14.07;;;3.60;99.90;;;;;;5052174;28;20565;-68
2022/12/30 04:05:39;;;;;;;23.03;14.10;;;3.60;99.90;;;;;;5051829;28;20559;-68
2022/12/30 04:08:06;;;;;;;23.13;14.10;;;3.60;99.90;;;;;;5052187;28;20683;-69
2022/12/30 04:10:34;;;;;;;21.50;14.17;;;3.70;99.90;;;;;;5051667;28;20228;-69
2022/12/30 04:13:01;;;;;;;20.23;13.63;;;3.70;99.90;;;;;;5052035;28;20205;-68
2022/12/30 04:15:28;;;;;;;21.90;14.53;;;3.70;99.90;;;;;;5050821;28;20216;-69
2022/12/30 04:17:55;;;;;;;20.67;14.03;;;3.70;99.90;;;;;;5051910;28;20212;-69
2022/12/30 04:20:21;;;;;;;23.30;14.27;;;3.70;99.90;;;;;;5050507;28;20193;-69
2022/12/30 04:22:48;;;;;;;24.23;14.50;;;3.70;99.90;;;;;;5050650;28;20236;-68
2022/12/30 04:25:15;;;;;;;22.50;14.17;;;3.70;99.90;;;;;;5051140;28;20680;-69
2022/12/30 04:27:43;;;;;;;22.43;15.10;;;3.80;99.90;;;;;;5050949;28;20209;-69
2022/12/30 04:30:11;;;;;;;28.17;14.20;;;3.80;99.90;;;;;;5049872;28;20233;-68
2022/12/30 04:32:37;;;;;;;25.40;15.90;;;3.90;99.90;;;;;;5032003;28;20222;-70
2022/12/30 04:35:05;;;;;;;24.17;14.30;;;3.90;99.90;;;;;;5031290;28;20205;-70
2022/12/30 04:37:32;;;;;;;24.70;15.77;;;3.90;99.90;;;;;;5030542;28;20233;-69
2022/12/30 04:39:59;;;;;;;24.23;15.70;;;4.00;99.90;;;;;;5031473;28;20212;-69
2022/12/30 04:42:25;;;;;;;23.93;15.67;;;4.00;99.90;;;;;;5043205;28;20638;-70
2022/12/30 04:44:54;;;;;;;24.27;15.20;;;4.00;99.90;;;;;;5051357;28;20291;-69
2022/12/30 04:47:20;;;;;;;23.40;15.20;;;4.00;99.90;;;;;;5051059;28;20215;-70
2022/12/30 04:49:47;;;;;;;24.70;14.43;;;4.00;99.90;;;;;;5050463;28;20198;-69
2022/12/30 04:52:14;;;;;;;23.47;14.77;;;4.00;99.90;;;;;;5051094;28;20230;-71
2022/12/30 04:54:40;;;;;;;24.47;15.33;;;4.00;99.90;;;;;;5051044;28;20684;-70
2022/12/30 04:57:07;;;;;;;20.93;14.53;;;4.00;99.90;;;;;;5050086;28;20216;-71
2022/12/30 04:59:34;;;;;;;24.47;15.20;;;4.00;99.90;;;;;;5050702;28;20231;-70
2022/12/30 05:02:02;;;;;;;22.73;15.47;;;4.00;99.90;;;;;;5050315;28;20201;-69
2022/12/30 05:04:29;;;;;;;25.27;15.00;;;4.10;99.90;;;;;;5050937;28;20221;-71
2022/12/30 05:06:56;;;;;;;25.00;15.33;;;4.10;99.90;;;;;;5051106;28;20209;-70
2022/12/30 05:09:23;;;;;;;27.40;16.13;;;4.10;99.90;;;;;;5049782;28;20205;-71
2022/12/30 05:11:50;;;;;;;25.53;15.70;;;4.10;99.90;;;;;;5050910;28;20708;-70
2022/12/30 05:14:16;;;;;;;27.17;15.97;;;4.20;99.90;;;;;;5051087;28;20673;-70
2022/12/30 05:16:43;;;;;;;26.17;16.27;;;4.10;99.90;;;;;;5050280;28;20213;-70
2022/12/30 05:19:12;;;;;;;25.37;16.57;;;4.20;99.90;;;;;;5050973;28;20201;-69
2022/12/30 05:21:38;;;;;;;25.30;16.00;;;4.20;99.90;;;;;;5050601;28;20205;-68
2022/12/30 05:26:50;;;;;;;26.17;15.57;;;4.20;99.90;;;;;;5050725;28;20193;-68
2022/12/30 05:29:17;;;;;;;25.93;15.67;;;4.20;99.90;;;;;;5050526;28;20242;-70
2022/12/30 05:31:44;;;;;;;27.53;15.90;;;4.20;99.90;;;;;;5050223;28;20251;-70
2022/12/30 05:34:12;;;;;;;24.50;15.03;;;4.20;99.90;;;;;;5050318;28;20227;-71
2022/12/30 05:36:39;;;;;;;25.07;15.83;;;4.20;99.90;;;;;;5053067;28;20229;-70
2022/12/30 05:39:06;;;;;;;23.63;14.77;;;4.10;99.90;;;;;;5054625;28;20205;-70
2022/12/30 05:41:33;;;;;;;24.57;15.87;;;4.20;99.90;;;;;;5051778;28;20201;-71
2022/12/30 05:44:00;;;;;;;28.33;17.73;;;4.10;99.90;;;;;;5053577;28;20206;-70
2022/12/30 05:46:27;;;;;;;27.17;17.60;;;4.10;99.90;;;;;;5047315;28;20217;-69
2022/12/30 05:48:53;;;;;;;27.60;17.40;;;4.10;99.90;;;;;;5043634;28;20202;-69
2022/12/30 05:51:21;;;;;;;30.97;17.03;;;4.10;99.90;;;;;;5044769;28;20228;-71
2022/12/30 05:53:48;;;;;;;25.80;16.43;;;4.20;99.90;;;;;;5045490;28;20663;-69
2022/12/30 05:56:15;;;;;;;25.40;15.97;;;4.10;99.90;;;;;;5044588;28;20201;-70
2022/12/30 05:58:42;;;;;;;27.10;16.70;;;4.20;99.90;;;;;;5044800;28;20679;-69
2022/12/30 06:01:09;;;;;;;23.57;15.40;;;4.20;99.90;;;;;;5043425;28;20209;-70
2022/12/30 06:03:36;;;;;;;25.13;15.37;;;4.20;99.90;;;;;;5050002;28;20197;-70
2022/12/30 06:06:05;;;;;;;26.67;16.87;;;4.20;99.90;;;;;;5048064;28;20202;-68
2022/12/30 06:08:33;;;;;;;28.83;17.20;;;4.20;99.90;;;;;;5046005;28;20229;-70
2022/12/30 06:11:00;;;;;;;26.57;17.87;;;4.20;99.90;;;;;;5046387;28;20197;-70
2022/12/30 06:13:27;;;;;;;28.03;17.70;;;4.20;99.90;;;;;;5053666;28;20581;-69
2022/12/30 06:15:54;;;;;;;26.53;17.17;;;4.10;99.90;;;;;;5054003;28;20597;-70
2022/12/30 06:18:20;;;;;;;27.40;16.83;;;4.00;99.90;;;;;;5053813;28;20205;-68
2022/12/30 06:20:48;;;;;;;30.03;18.53;;;4.00;99.90;;;;;;5054438;28;20209;-69
2022/12/30 06:23:15;;;;;;;29.23;17.60;;;4.10;99.90;;;;;;5052165;28;20658;-68
2022/12/30 06:25:43;;;;;;;34.50;20.33;;;4.00;99.90;;;;;;5053305;28;20197;-68
2022/12/30 06:28:10;;;;;;;34.13;20.70;;;4.00;99.90;;;;;;5054558;28;20206;-70
2022/12/30 06:30:37;;;;;;;31.37;20.47;;;4.00;99.90;;;;;;5070392;28;20238;-70
2022/12/30 06:33:04;;;;;;;34.93;20.30;;;4.00;99.90;;;;;;5049661;28;20225;-69
2022/12/30 06:35:30;;;;;;;32.83;19.93;;;3.90;99.90;;;;;;5046151;28;20212;-69
2022/12/30 06:37:57;;;;;;;33.07;20.37;;;3.90;99.90;;;;;;5044776;28;20206;-70
2022/12/30 06:40:24;;;;;;;32.03;20.63;;;4.00;99.90;;;;;;5043783;28;20198;-69
2022/12/30 06:42:52;;;;;;;32.60;19.97;;;3.90;99.90;;;;;;5042776;28;20198;-70
2022/12/30 06:45:19;;;;;;;39.20;20.97;;;3.90;99.90;;;;;;5041984;28;20206;-69
2022/12/30 06:47:45;;;;;;;34.87;19.37;;;4.00;99.90;;;;;;5043612;28;20229;-70
2022/12/30 06:50:12;;;;;;;31.30;19.57;;;4.00;99.90;;;;;;5042842;28;20668;-70
2022/12/30 06:52:39;;;;;;;33.27;20.73;;;4.10;99.90;;;;;;5044608;28;20230;-69
2022/12/30 06:55:07;;;;;;;29.07;19.30;;;4.00;99.90;;;;;;5041700;28;20574;-73
2022/12/30 06:57:34;;;;;;;31.00;19.10;;;4.00;99.90;;;;;;5042047;28;20225;-70
2022/12/30 07:00:03;;;;;;;30.07;18.47;;;4.10;99.90;;;;;;5044854;28;20198;-69
2022/12/30 07:02:30;;;;;;;32.80;19.13;;;4.10;99.90;;;;;;5044623;28;20205;-69
2022/12/30 07:04:57;;;;;;;34.13;20.00;;;4.10;99.90;;;;;;5053296;28;20208;-70
2022/12/30 07:07:23;;;;;;;33.80;21.23;;;4.10;99.90;;;;;;5052711;28;20217;-70
2022/12/30 07:09:50;;;;;;;36.83;23.03;;;4.10;99.90;;;;;;5049987;28;20312;-69
2022/12/30 07:12:17;;;;;;;32.27;19.10;;;4.20;99.90;;;;;;5034931;28;20226;-68
2022/12/30 07:14:44;;;;;;;28.43;18.20;;;4.20;99.90;;;;;;5031680;28;20209;-69
2022/12/30 07:17:13;;;;;;;29.90;19.40;;;4.20;99.90;;;;;;5039060;28;20682;-68
2022/12/30 07:19:39;;;;;;;30.17;19.10;;;4.20;99.90;;;;;;5051499;28;20216;-68
2022/12/30 07:22:06;;;;;;;34.57;20.40;;;4.30;99.90;;;;;;5051114;28;20802;-68
2022/12/30 07:24:33;;;;;;;31.77;20.30;;;4.30;99.90;;;;;;5051439;28;20205;-68
2022/12/30 07:27:00;;;;;;;31.40;20.20;;;4.30;99.90;;;;;;5051464;28;20280;-68
2022/12/30 07:29:26;;;;;;;33.10;19.33;;;4.30;99.90;;;;;;5052183;28;20241;-69
2022/12/30 07:31:53;;;;;;;32.50;20.23;;;4.40;99.90;;;;;;5050785;28;20256;-70
2022/12/30 07:34:21;;;;;;;32.00;18.50;;;4.50;99.90;;;;;;5051550;28;20206;-69
2022/12/30 07:36:48;;;;;;;27.87;17.90;;;4.50;99.90;;;;;;5050859;28;20206;-69
2022/12/30 07:39:15;;;;;;;29.10;18.03;;;4.50;99.90;;;;;;5052132;28;20216;-69
2022/12/30 07:41:42;;;;;;;29.87;17.63;;;4.60;99.90;;;;;;5052431;28;20212;-69
2022/12/30 07:44:09;;;;;;;29.53;18.13;;;4.60;99.90;;;;;;5052259;28;20224;-69
2022/12/30 07:46:36;;;;;;;31.03;17.53;;;4.70;99.90;;;;;;5052290;28;20562;-68
2022/12/30 07:49:03;;;;;;;29.60;17.43;;;4.70;99.90;;;;;;5052152;28;20217;-68
2022/12/30 07:51:31;;;;;;;28.27;18.20;;;4.70;99.90;;;;;;5051179;28;20647;-69
2022/12/30 07:53:58;;;;;;;27.13;16.03;;;4.70;99.90;;;;;;5050332;28;20217;-67
2022/12/30 07:56:25;;;;;;;26.50;16.80;;;4.70;99.90;;;;;;5052040;28;20653;-69
2022/12/30 07:58:54;;;;;;;27.27;17.00;;;4.80;99.90;;;;;;5051794;28;20216;-68
2022/12/30 08:01:21;;;;;;;33.00;18.37;;;4.80;99.90;;;;;;5052289;28;20202;-69
2022/12/30 08:03:48;;;;;;;27.83;16.60;;;4.90;99.90;;;;;;5051758;28;20216;-69
2022/12/30 08:06:17;;;;;;;31.77;18.90;;;4.90;99.90;;;;;;5051681;28;20209;-68
2022/12/30 08:08:46;;;;;;;29.30;18.17;;;5.00;99.90;;;;;;5050621;28;20565;-72
2022/12/30 08:11:14;;;;;;;33.70;19.17;;;5.00;99.90;;;;;;5051502;28;20247;-68
2022/12/30 08:13:43;;;;;;;30.93;18.73;;;5.00;99.90;;;;;;5051872;28;20229;-68
2022/12/30 08:16:11;;;;;;;31.17;19.93;;;5.00;99.90;;;;;;5071475;28;20204;-68
2022/12/30 08:18:38;;;;;;;32.67;19.23;;;5.10;99.90;;;;;;5071922;28;20204;-68
2022/12/30 08:21:08;;;;;;;30.60;18.00;;;5.10;99.90;;;;;;5071703;28;20205;-69
2022/12/30 08:23:35;;;;;;;33.23;20.23;;;5.20;99.90;;;;;;5072018;28;20201;-68
2022/12/30 08:26:06;;;;;;;31.20;18.37;;;5.20;99.90;;;;;;5071656;28;20204;-68
2022/12/30 08:28:32;;;;;;;32.53;19.23;;;5.30;99.90;;;;;;5051333;28;20201;-69
2022/12/30 08:30:59;;;;;;;31.00;18.43;;;5.30;99.90;;;;;;5051345;28;20248;-69
2022/12/30 08:33:26;;;;;;;31.57;17.63;;;5.30;99.90;;;;;;5050281;28;20697;-67
2022/12/30 08:35:53;;;;;;;31.30;18.67;;;5.40;99.90;;;;;;5045960;28;20204;-68
2022/12/30 08:38:19;;;;;;;31.93;18.53;;;5.30;99.90;;;;;;5045780;28;20205;-67
2022/12/30 08:40:46;;;;;;;31.03;18.13;;;5.30;99.90;;;;;;5031977;28;20205;-67
2022/12/30 08:43:18;;;;;;;26.57;16.90;;;5.30;99.90;;;;;;5050674;28;20205;-66
2022/12/30 08:45:45;;;;;;;32.67;19.13;;;5.40;99.90;;;;;;5051765;28;20533;-66
2022/12/30 08:48:12;;;;;;;33.73;19.30;;;5.40;99.90;;;;;;5050878;28;20201;-66
2022/12/30 08:50:39;;;;;;;37.57;19.63;;;5.50;99.90;;;;;;5050503;28;20237;-67
2022/12/30 08:53:05;;;;;;;34.93;19.67;;;5.50;99.90;;;;;;5051244;28;20236;-66
2022/12/30 08:55:32;;;;;;;37.83;20.50;;;5.50;99.90;;;;;;5049337;28;20560;-66
2022/12/30 08:57:59;;;;;;;30.57;18.53;;;5.50;99.90;;;;;;5040208;28;20381;-67
2022/12/30 09:00:27;;;;;;;36.17;19.40;;;5.50;99.90;;;;;;5051352;28;20226;-66
2022/12/30 09:02:54;;;;;;;29.93;17.90;;;5.60;99.90;;;;;;5049688;28;20206;-66
2022/12/30 09:05:20;;;;;;;29.97;17.47;;;5.60;99.90;;;;;;5051386;28;20197;-66
2022/12/30 09:07:47;;;;;;;29.50;17.70;;;5.70;99.90;;;;;;5051212;28;20200;-67
2022/12/30 09:10:14;;;;;;;28.90;18.27;;;5.70;99.90;;;;;;5051627;28;20205;-66
2022/12/30 09:12:41;;;;;;;30.77;18.00;;;5.80;99.90;;;;;;5054809;28;20221;-69
2022/12/30 09:15:09;;;;;;;29.90;17.73;;;5.90;99.90;;;;;;5055031;28;20213;-67
2022/12/30 09:17:37;;;;;;;28.87;18.03;;;5.90;99.90;;;;;;5054960;28;20212;-67
2022/12/30 09:20:05;;;;;;;29.67;17.60;;;5.90;99.90;;;;;;5054548;28;20209;-67
2022/12/30 09:22:31;;;;;;;28.37;17.63;;;6.00;99.90;;;;;;5054903;28;20205;-69
2022/12/30 09:24:58;;;;;;;28.10;17.67;;;6.10;99.90;;;;;;5055268;28;20219;-67
2022/12/30 09:27:25;;;;;;;32.93;17.77;;;6.10;99.90;;;;;;5054983;28;20220;-71
2022/12/30 09:29:52;;;;;;;29.13;18.43;;;6.10;99.90;;;;;;5050978;28;20233;-71
2022/12/30 09:32:18;;;;;;;29.77;18.20;;;6.10;99.90;;;;;;5054387;28;20225;-70
2022/12/30 09:34:47;;;;;;;30.87;18.03;;;6.10;99.90;;;;;;5054624;28;20202;-69
2022/12/30 09:37:14;;;;;;;30.27;19.27;;;6.20;99.90;;;;;;5054650;28;20205;-71
2022/12/30 09:39:41;;;;;;;32.50;19.20;;;6.20;99.90;;;;;;5054792;28;20730;-71
2022/12/30 09:45:23;;;;;;;31.00;19.20;;;6.30;99.90;;;;;;5034589;28;20260;-71
2022/12/30 09:47:51;;;;;;;30.80;19.23;;;6.30;99.90;;;;;;5034758;28;20344;-72
2022/12/30 09:50:30;;;;;;;31.83;19.03;;;6.30;99.90;;;;;;5047273;28;20206;-74
2022/12/30 09:53:03;;;;;;;29.37;18.23;;;6.40;99.90;;;;;;5034744;28;20674;-69
2022/12/30 09:55:34;;;;;;;28.50;18.47;;;6.40;99.90;;;;;;5037559;28;20241;-71
2022/12/30 09:58:09;;;;;;;29.17;18.43;;;6.50;99.90;;;;;;5047367;28;20199;-71
2022/12/30 10:00:37;;;;;;;25.33;15.93;;;6.60;99.90;;;;;;5049878;28;20674;-70
2022/12/30 10:03:07;;;;;;;28.07;17.20;;;6.60;99.90;;;;;;5043494;28;20293;-71
2022/12/30 10:05:44;;;;;;;29.40;16.97;;;6.70;99.90;;;;;;5054682;28;20228;-73
2022/12/30 10:08:29;;;;;;;29.93;17.13;;;6.70;99.90;;;;;;5039454;28;20213;-70
2022/12/30 10:11:06;;;;;;;26.77;16.40;;;6.70;99.90;;;;;;5034062;28;20293;-70
2022/12/30 10:13:41;;;;;;;29.27;17.80;;;6.80;99.90;;;;;;5053391;28;20229;-69
2022/12/30 10:16:13;;;;;;;29.80;17.57;;;6.80;99.90;;;;;;5051958;28;20201;-69
2022/12/30 10:18:57;;;;;;;26.53;16.60;;;6.80;99.90;;;;;;5048877;28;20220;-70
2022/12/30 10:21:37;;;;;;;28.33;17.77;;;6.90;99.90;;;;;;5050327;28;20205;-71
2022/12/30 10:24:18;;;;;;;27.87;17.67;;;7.00;99.90;;;;;;5051575;28;20197;-72
2022/12/30 10:26:47;;;;;;;27.87;17.23;;;7.00;99.90;;;;;;5049657;28;20564;-72
2022/12/30 10:29:18;;;;;;;29.00;17.77;;;7.00;99.90;;;;;;5053558;28;20201;-72
2022/12/30 10:31:46;;;;;;;28.57;17.53;;;7.10;99.90;;;;;;5051037;28;20193;-70
2022/12/30 10:34:15;;;;;;;26.47;17.03;;;7.10;99.90;;;;;;5052949;28;20272;-72
2022/12/30 10:36:49;;;;;;;27.30;16.70;;;7.20;99.90;;;;;;5048873;28;20206;-73
2022/12/30 10:39:18;;;;;;;28.30;16.90;;;7.20;99.90;;;;;;5044162;28;20197;-71
2022/12/30 10:41:58;;;;;;;25.30;16.87;;;7.20;99.90;;;;;;5053698;28;20205;-72
2022/12/30 10:44:30;;;;;;;28.10;17.13;;;7.30;99.90;;;;;;5053688;28;20638;-71
2022/12/30 10:47:21;;;;;;;28.40;17.70;;;7.30;99.90;;;;;;5048682;28;20241;-75
2022/12/30 10:50:07;;;;;;;27.47;17.47;;;7.30;99.90;;;;;;5039131;28;20665;-73
2022/12/30 10:52:35;;;;;;;30.37;18.37;;;7.30;99.90;;;;;;5044454;28;20202;-74
2022/12/30 10:55:15;;;;;;;32.53;19.67;;;7.30;99.90;;;;;;5049407;28;20204;-72
2022/12/30 10:57:42;;;;;;;34.27;18.87;;;7.30;99.90;;;;;;5046214;28;20205;-72
2022/12/30 11:00:10;;;;;;;32.07;19.27;;;7.30;99.90;;;;;;5045783;28;20201;-72
2022/12/30 11:02:38;;;;;;;29.23;18.50;;;7.30;99.90;;;;;;5051996;28;20212;-72
2022/12/30 11:05:27;;;;;;;26.47;17.87;;;7.30;99.90;;;;;;5048505;28;20205;-72
2022/12/30 11:07:57;;;;;;;28.87;18.67;;;7.30;99.90;;;;;;5047960;28;20202;-70
2022/12/30 11:10:23;;;;;;;31.17;18.60;;;7.30;99.90;;;;;;5053088;28;20201;-70
2022/12/30 11:15:50;;;;;;;29.00;17.80;;;7.30;99.90;;;;;;5052943;28;20664;-72
2022/12/30 11:18:18;;;;;;;31.40;18.57;;;7.40;99.90;;;;;;5053298;28;20200;-70
2022/12/30 11:20:51;;;;;;;30.40;18.50;;;7.40;99.90;;;;;;5052971;28;20201;-70
2022/12/30 11:23:27;;;;;;;29.77;18.50;;;7.40;99.90;;;;;;5053178;28;20190;-70
2022/12/30 11:25:54;;;;;;;30.20;18.27;;;7.40;99.90;;;;;;5052644;28;20196;-70
2022/12/30 11:28:24;;;;;;;29.53;17.63;;;7.40;99.90;;;;;;5052653;28;20216;-70
2022/12/30 11:31:03;;;;;;;31.80;18.67;;;7.40;99.90;;;;;;5052550;28;20264;-70
2022/12/30 11:33:33;;;;;;;30.03;18.43;;;7.50;99.90;;;;;;5052035;28;20205;-71
2022/12/30 11:36:16;;;;;;;28.43;17.77;;;7.50;99.90;;;;;;5052783;28;20194;-72
2022/12/30 11:38:46;;;;;;;27.33;17.10;;;7.50;99.90;;;;;;5052383;28;20193;-70
2022/12/30 11:41:22;;;;;;;25.87;16.27;;;7.40;99.90;;;;;;5052425;28;20231;-72
2022/12/30 11:43:51;;;;;;;25.87;16.73;;;7.40;99.90;;;;;;5052278;28;20196;-72
2022/12/30 11:46:21;;;;;;;25.90;17.20;;;7.50;99.90;;;;;;5052339;28;20201;-71
2022/12/30 11:48:50;;;;;;;27.90;16.67;;;7.50;99.90;;;;;;5052217;28;20677;-70
2022/12/30 11:51:19;;;;;;;27.83;17.77;;;7.50;99.90;;;;;;5052545;28;20201;-70
2022/12/30 11:53:48;;;;;;;26.83;16.43;;;7.50;99.90;;;;;;5052203;28;20221;-72
2022/12/30 11:56:21;;;;;;;27.40;16.97;;;7.50;99.90;;;;;;5052101;28;20319;-71
2022/12/30 11:58:49;;;;;;;23.97;16.47;;;7.50;99.90;;;;;;5052529;28;20201;-72
2022/12/30 12:01:16;;;;;;;27.50;16.87;;;7.50;99.90;;;;;;5052051;28;20205;-70
2022/12/30 12:03:49;;;;;;;30.07;17.90;;;7.50;99.90;;;;;;5052092;28;20209;-70
2022/12/30 12:06:16;;;;;;;27.60;17.80;;;7.60;99.90;;;;;;5052236;28;20675;-71
2022/12/30 12:08:51;;;;;;;32.30;20.40;;;7.60;99.90;;;;;;5051863;28;20208;-70
2022/12/30 12:11:21;;;;;;;31.40;18.97;;;7.60;99.90;;;;;;5052006;28;20189;-70
2022/12/30 12:13:53;;;;;;;32.40;19.10;;;7.60;99.90;;;;;;5051827;28;20233;-70
2022/12/30 12:16:32;;;;;;;33.67;19.50;;;7.60;99.90;;;;;;5052325;28;20204;-71
2022/12/30 12:19:11;;;;;;;31.60;19.03;;;7.60;99.90;;;;;;5052019;28;20634;-70
2022/12/30 12:21:40;;;;;;;28.63;18.10;;;7.70;99.90;;;;;;5051961;28;20545;-70
2022/12/30 12:24:17;;;;;;;26.43;17.87;;;7.60;99.90;;;;;;5052062;28;20259;-71
2022/12/30 12:26:51;;;;;;;27.60;17.73;;;7.60;99.90;;;;;;5051852;28;20659;-71
2022/12/30 12:29:18;;;;;;;28.33;17.93;;;7.70;99.90;;;;;;5051534;28;20233;-69
2022/12/30 12:32:11;;;;;;;27.33;17.37;;;7.70;99.90;;;;;;5051965;28;20291;-71
2022/12/30 12:34:49;;;;;;;28.00;17.13;;;7.70;99.90;;;;;;5051511;28;20220;-70
2022/12/30 12:37:30;;;;;;;26.70;16.77;;;7.70;99.90;;;;;;5051931;28;20205;-71
2022/12/30 12:40:17;;;;;;;30.40;18.07;;;7.70;99.90;;;;;;5051929;28;20198;-69
2022/12/30 12:42:55;;;;;;;28.63;17.80;;;7.70;99.90;;;;;;5051967;28;20200;-71
2022/12/30 12:45:46;;;;;;;29.37;18.60;;;7.70;99.90;;;;;;5054061;28;20791;-70
2022/12/30 12:48:30;;;;;;;26.47;16.80;;;7.70;99.90;;;;;;5056104;28;20208;-70
2022/12/30 12:51:24;;;;;;;28.17;17.80;;;7.70;99.90;;;;;;5056083;28;20193;-70
2022/12/30 12:54:11;;;;;;;31.57;18.27;;;7.70;99.90;;;;;;5047428;28;20252;-71
2022/12/30 12:56:51;;;;;;;27.40;17.40;;;7.70;99.90;;;;;;5055679;28;20280;-70
2022/12/30 12:59:35;;;;;;;26.37;16.10;;;7.70;99.90;;;;;;5055600;28;20655;-70
2022/12/30 13:02:16;;;;;;;27.37;16.27;;;7.70;99.90;;;;;;5055948;28;20549;-74
2022/12/30 13:04:54;;;;;;;26.87;16.37;;;7.70;99.90;;;;;;5055564;28;20189;-70
2022/12/30 13:07:38;;;;;;;33.20;17.57;;;7.70;99.90;;;;;;5055407;28;20526;-70
2022/12/30 13:10:22;;;;;;;28.30;17.13;;;7.70;99.90;;;;;;5055565;28;20198;-71
2022/12/30 13:13:02;;;;;;;28.77;17.20;;;7.70;99.90;;;;;;5055426;28;20233;-71
2022/12/30 13:15:33;;;;;;;27.40;16.60;;;7.60;99.90;;;;;;5055264;28;20293;-71
2022/12/30 13:18:03;;;;;;;26.77;17.10;;;7.60;99.90;;;;;;5055542;28;20626;-72
2022/12/30 13:20:32;;;;;;;27.53;16.67;;;7.60;99.90;;;;;;5055013;28;20193;-70
2022/12/30 13:23:03;;;;;;;26.90;17.47;;;7.50;99.90;;;;;;5054943;28;20208;-70
2022/12/30 13:25:34;;;;;;;27.53;17.43;;;7.60;99.90;;;;;;5054749;28;20185;-71
2022/12/30 13:28:03;;;;;;;30.60;17.73;;;7.60;99.90;;;;;;5055027;28;20193;-70
2022/12/30 13:30:36;;;;;;;28.00;17.37;;;7.60;99.90;;;;;;5054412;28;20243;-71
2022/12/30 13:33:09;;;;;;;28.77;17.30;;;7.60;99.90;;;;;;5055151;28;20193;-74
2022/12/30 13:35:47;;;;;;;29.70;17.80;;;7.50;99.90;;;;;;5054806;28;20220;-71
2022/12/30 13:38:26;;;;;;;28.30;17.63;;;7.50;99.90;;;;;;5054748;28;20655;-71
2022/12/30 13:41:07;;;;;;;30.10;18.70;;;7.40;99.90;;;;;;5055068;28;20197;-71
2022/12/30 13:43:41;;;;;;;30.47;19.13;;;7.40;99.90;;;;;;5054733;28;20197;-70
2022/12/30 13:46:16;;;;;;;28.97;17.43;;;7.40;99.90;;;;;;5054989;28;20246;-73
2022/12/30 13:48:51;;;;;;;28.43;17.47;;;7.40;99.90;;;;;;5054919;28;20204;-71
2022/12/30 13:51:21;;;;;;;27.10;17.30;;;7.40;99.90;;;;;;5054386;28;20252;-71
2022/12/30 13:53:50;;;;;;;28.20;17.10;;;7.30;99.90;;;;;;5054322;28;20220;-70